Peotone Weather

Nearby METAR Reports

 

KIGQ - Lansing, Illinois, USA
Distance from station: NE 19mi, 30km
Updated: Sat, 15-Dec-2018 1:35am CST
Mist, Overcast
Mist, Overcast
 Wind from NNE
Wind: NNE 5 mph , 7 km/h
Temperature: 36°F , 2°C
Wind Chill: 32°F , 0°C
Dew Point: 34°F , 1°C
Humidity: 93%
Barometer: 30.16 inHg , 1021.3 hPa
Summary: Mist
Clouds: Overcast
Visibility: 1 3/4 miles , 2.8 km
Cloud details: Overcast 500 ft
2018/12/15 07:35 KIGQ 150735Z AUTO 02004KT 1 3/4SM BR OVC005 02/01 A3016 RMK AO2 T00170014
KIKK - Kankakee, Illinois, USA
Distance from station: S 19mi, 30km
Updated: Sat, 15-Dec-2018 1:35am CST
Mist, Overcast
Mist, Overcast
 Wind from NE
Wind: NE 8 mph , 13 km/h
Temperature: 34°F , 1°C
Wind Chill: 27°F , -3°C
Dew Point: 34°F , 1°C
Humidity: 100%
Barometer: 30.14 inHg , 1020.7 hPa
Summary: Mist
Clouds: Overcast
Visibility: 1 1/2 miles , 2.4 km
Cloud details: Overcast 300 ft
2018/12/15 07:35 KIKK 150735Z AUTO 04007KT 1 1/2SM BR OVC003 01/01 A3014 RMK AO2 T00120010
 
KSJC - Joliet, Illinois, USA
Distance from station: WNW 24mi, 38km
Updated: Sat, 15-Dec-2018 12:53am CST
NOT Current
Partly cloudy
Partly cloudy
 Wind from SE
Wind: SE 7 mph , 11 km/h
Temperature: 52°F , 11°C
Dew Point: 48°F , 9°C
Humidity: 88%
Barometer: 30.13 inHg , 1020.3 hPa
Clouds: Partly cloudy
Visibility: 10 miles , 16 km
Cloud details: Few Clouds 3700 ft
Partly cloudy 7000 ft
2018/12/15 06:53 KSJC 150653Z 14006KT 10SM FEW037 SCT070 11/09 A3013 RMK AO2 SLP202 T01110089
KLOT - Romeoville, Illinois, USA
Distance from station: NW 26mi, 41km
Updated: Sat, 15-Dec-2018 1:35am CST
Fog, Overcast
Fog, Overcast
 Wind from NE
Wind: NE 5 mph , 7 km/h
Temperature: 32°F , 0°C
Wind Chill: 27°F , -3°C
Dew Point: 32°F , 0°C
Humidity: 100%
Barometer: 30.16 inHg , 1021.3 hPa
Summary: Fog
Clouds: Overcast
Visibility: 1/2 mile , 0.8 km
Cloud details: Overcast 200 ft
2018/12/15 07:35 KLOT 150735Z AUTO 05004KT 1/2SM FG OVC002 00/00 A3016 RMK AO2 T10011001
 
KMDW - Midway Airport Chicago, Illinois, USA
Distance from station: N 31mi, 50km
Updated: Sat, 15-Dec-2018 12:53am CST
NOT Current
Mist, Mostly cloudy
Mist, Mostly cloudy
 Wind from N
Wind: N 6 mph , 9 km/h
Temperature: 34°F , 1°C
Wind Chill: 29°F , -2°C
Dew Point: 34°F , 1°C
Humidity: 100%
Barometer: 30.15 inHg , 1021 hPa
Summary: Mist
Clouds: Mostly cloudy
Visibility: 2 miles , 3 km
Cloud details: Mostly cloudy 25000 ft
2018/12/15 06:53 KMDW 150653Z 01005KT 2SM BR BKN250 01/01 A3015 RMK AO2 SLP220 T00110006
KC09 - Morris, Illinois, USA
Distance from station: W 34mi, 54km
Updated: Sat, 15-Dec-2018 1:35am CST
Freezing fog, Overcast
Freezing fog, Overcast
 Wind from calm
Wind: Calm
Temperature: 30°F , -1°C
Dew Point: 30°F , -1°C
Humidity: 100%
Barometer: 30.15 inHg , 1021 hPa
Summary: Freezing Fog
Clouds: Overcast
Visibility: 1/2 mile , 0.8 km
Cloud details: Overcast 200 ft
2018/12/15 07:35 KC09 150735Z AUTO 00000KT 1/2SM FZFG OVC002 M01/M01 A3015 RMK AO2 T10081010

Metar display script from Saratoga-Weather.org